Forside
METAR-TAF:

METAR-TAF

Lufthavne :

Rochelle Municipal Airport (Koritz Field)

Rochelle, Illinois, USA

Breddekreds: 41-53-35N, længdekreds: 089-04-42W, højde: 238 m

Aktuelle vejr

Denne rapport blev lavet for 15 minutter siden, kl. 11:55 UTC
Vind 6 kt fra sydøst
Temperatur 0°C
Fugtighed 100%
Tryk 1023 hPa
Sigt: 8.0 km
Brudte skyer i en højde af 400 ft
Brudte skyer i en højde af 1600 ft
Overskyet i en højde af 4100 ft
let regn

METAR: KRPJ 241155Z AUTO 14006KT 5SM -RA BKN004 BKN016 OVC041 00/00 A3021 RMK AO2 T00010001 10020 20000

Tid: 06:10 (12:10 UTC)


TAF: fraværende

Vejrobservationer og prognoser fra mere end 4000 lufthavne (METAR og TAF).

De gule og røde prikker repræsenterer de meteorologiske stationer.

Flyt musen over at se navnet på stationen.

Så klik over at se vejr observationer og prognoser.

At skifte det kort: Klik på de grønne knapper med et sort kors for at zoome ind; på den grønne knap med en bindestreg for at zoome ud; eller på de grønne pile for tilstødende kort.


METAR-TAF: